createdAt,value
2018-12-21T00:00:40.514Z,0.61
2018-12-21T00:03:11.450Z,0.84
2018-12-21T00:05:42.582Z,1.48
2018-12-21T00:08:13.744Z,0.36
2018-12-21T00:10:44.443Z,0.25
2018-12-21T00:13:15.390Z,0.67
2018-12-21T00:15:47.161Z,0.98
2018-12-21T00:18:18.502Z,1.10
2018-12-21T00:20:49.796Z,1.17
2018-12-21T00:23:20.833Z,1.30
2018-12-21T00:25:51.774Z,0.94
2018-12-21T00:28:22.855Z,1.03
2018-12-21T00:30:58.895Z,0.86
2018-12-21T00:33:34.833Z,1.14
2018-12-21T00:36:10.729Z,1.21
2018-12-21T00:38:46.973Z,1.43
2018-12-21T00:41:17.774Z,1.11
2018-12-21T00:44:11.449Z,0.77
2018-12-21T00:46:46.566Z,0.30
2018-12-21T00:49:19.051Z,-0.17
2018-12-21T00:51:49.869Z,-0.17
2018-12-21T00:54:20.732Z,0.26
2018-12-21T00:56:51.243Z,0.36
2018-12-21T00:59:21.956Z,0.51
2018-12-21T01:01:53.495Z,0.62
2018-12-21T01:04:24.407Z,0.07
2018-12-21T01:06:55.213Z,0.39
2018-12-21T01:09:26.747Z,1.07
2018-12-21T01:11:58.355Z,0.41
2018-12-21T01:14:29.249Z,0.64
2018-12-21T01:17:00.737Z,0.21
2018-12-21T01:19:37.441Z,0.47
2018-12-21T01:22:10.548Z,0.82
2018-12-21T01:24:43.979Z,1.13
2018-12-21T01:27:17.295Z,1.19
2018-12-21T01:29:48.114Z,-0.01
2018-12-21T01:32:19.971Z,0.05
2018-12-21T01:34:52.522Z,0.67
2018-12-21T01:37:28.303Z,0.41
2018-12-21T01:40:01.183Z,0.43
2018-12-21T01:42:36.698Z,0.73
2018-12-21T01:45:14.379Z,0.91
2018-12-21T01:47:50.026Z,0.86
2018-12-21T01:50:23.572Z,0.44
2018-12-21T01:52:54.122Z,1.36
2018-12-21T01:55:25.090Z,0.72
2018-12-21T01:57:56.184Z,0.88
2018-12-21T02:00:29.137Z,0.49
2018-12-21T02:02:59.907Z,-0.36
2018-12-21T02:05:39.158Z,-0.37
2018-12-21T02:08:13.841Z,0.16
2018-12-21T02:10:45.199Z,0.27
2018-12-21T02:13:18.406Z,0.31
2018-12-21T02:15:49.226Z,-0.47
2018-12-21T02:18:23.659Z,-0.50
2018-12-21T02:20:56.839Z,0.09
2018-12-21T02:23:29.541Z,0.43
2018-12-21T02:26:00.802Z,0.61
2018-12-21T02:28:33.270Z,1.09
2018-12-21T02:31:04.560Z,1.46
2018-12-21T02:33:35.378Z,1.12
2018-12-21T02:36:05.908Z,1.53
2018-12-21T02:38:36.475Z,0.59
2018-12-21T02:41:07.149Z,0.90
2018-12-21T02:43:37.963Z,0.49
2018-12-21T02:46:08.527Z,1.17
2018-12-21T02:48:39.280Z,1.08
2018-12-21T02:51:09.895Z,0.55
2018-12-21T02:53:46.043Z,1.05
2018-12-21T02:56:19.822Z,0.83
2018-12-21T02:58:53.518Z,-0.20
2018-12-21T03:01:24.750Z,0.27
2018-12-21T03:03:57.962Z,0.46
2018-12-21T03:06:29.349Z,0.24
2018-12-21T03:08:59.947Z,0.51
2018-12-21T03:11:35.472Z,-0.07
2018-12-21T03:14:07.691Z,0.46
2018-12-21T03:16:43.267Z,0.07
2018-12-21T03:19:17.782Z,0.29
2018-12-21T03:21:48.491Z,0.65
2018-12-21T03:24:19.160Z,1.22
2018-12-21T03:26:55.560Z,1.14
2018-12-21T03:29:28.942Z,0.63
2018-12-21T03:32:00.294Z,0.60
2018-12-21T03:34:31.256Z,0.44
2018-12-21T03:37:09.517Z,0.17
2018-12-21T03:39:42.783Z,0.04
2018-12-21T03:42:17.459Z,0.88
2018-12-21T03:44:52.883Z,1.07
2018-12-21T03:47:23.844Z,1.16
2018-12-21T03:49:54.572Z,1.30
2018-12-21T03:52:28.618Z,1.82
2018-12-21T03:54:59.918Z,1.58
2018-12-21T03:57:31.838Z,1.85
2018-12-21T04:00:11.570Z,1.73
2018-12-21T04:02:42.535Z,0.87
2018-12-21T04:05:13.058Z,0.63
2018-12-21T04:07:43.610Z,0.50
2018-12-21T04:10:14.593Z,0.69
2018-12-21T04:12:45.487Z,0.12
2018-12-21T04:15:16.109Z,0.56
2018-12-21T04:17:47.445Z,1.08
2018-12-21T04:20:19.677Z,1.34
2018-12-21T04:22:50.993Z,1.23
2018-12-21T04:25:21.954Z,1.20
2018-12-21T04:27:55.959Z,1.46
2018-12-21T04:30:27.023Z,1.81
2018-12-21T04:33:00.618Z,1.41
2018-12-21T04:35:34.054Z,1.67
2018-12-21T04:38:06.887Z,1.74
2018-12-21T04:40:38.491Z,1.24
2018-12-21T04:43:09.362Z,1.52
2018-12-21T04:45:41.902Z,1.53
2018-12-21T04:48:16.581Z,1.55
2018-12-21T04:50:49.844Z,1.79
2018-12-21T04:53:23.178Z,1.36
2018-12-21T04:55:54.995Z,1.57
2018-12-21T04:58:27.758Z,1.72
2018-12-21T05:00:58.398Z,1.33
2018-12-21T05:03:28.932Z,1.87
2018-12-21T05:06:00.119Z,2.08
2018-12-21T05:08:34.006Z,1.79
2018-12-21T05:11:12.943Z,2.12
2018-12-21T05:13:46.115Z,2.21
2018-12-21T05:16:17.406Z,2.75
2018-12-21T05:18:48.191Z,2.04
2018-12-21T05:21:18.939Z,1.79
2018-12-21T05:23:49.638Z,1.26
2018-12-21T05:26:20.675Z,1.67
2018-12-21T05:28:51.805Z,1.31
2018-12-21T05:31:28.278Z,1.35
2018-12-21T05:33:56.188Z,1.00
2018-12-21T05:36:26.969Z,0.69
2018-12-21T05:39:00.634Z,0.87
2018-12-21T05:41:31.614Z,0.63
2018-12-21T05:44:06.309Z,1.56
2018-12-21T05:46:41.322Z,1.86
2018-12-21T05:49:12.079Z,1.43
2018-12-21T05:51:43.141Z,0.83
2018-12-21T05:54:19.168Z,0.56
2018-12-21T05:56:53.994Z,0.69
2018-12-21T05:59:26.270Z,0.89
2018-12-21T06:01:58.904Z,0.35
2018-12-21T06:04:31.119Z,0.19
2018-12-21T06:07:08.018Z,0.03
2018-12-21T06:09:45.280Z,0.29
2018-12-21T06:12:18.085Z,0.32
2018-12-21T06:14:49.481Z,0.07
2018-12-21T06:17:22.510Z,-0.17
2018-12-21T06:19:54.920Z,-1.00
2018-12-21T06:22:29.460Z,-0.60
2018-12-21T06:25:00.489Z,-0.14
2018-12-21T06:27:35.406Z,-0.07
2018-12-21T06:30:17.486Z,-0.17
2018-12-21T06:32:55.655Z,-0.57
2018-12-21T06:35:29.708Z,-0.28
2018-12-21T06:38:01.049Z,-0.06
2018-12-21T06:40:32.587Z,-0.63
2018-12-21T06:43:04.569Z,-0.50
2018-12-21T06:45:39.274Z,-0.31
2018-12-21T06:48:13.448Z,-0.32
2018-12-21T06:50:44.782Z,-0.41
2018-12-21T06:53:18.012Z,-0.67
2018-12-21T06:55:53.747Z,-0.64
2018-12-21T06:58:24.771Z,-0.29
2018-12-21T07:00:55.938Z,-0.14
2018-12-21T07:03:26.863Z,-0.52
2018-12-21T07:05:59.835Z,-0.25
2018-12-21T07:08:30.800Z,-0.08
2018-12-21T07:11:05.097Z,-0.16
2018-12-21T07:13:38.980Z,-0.23
2018-12-21T07:16:12.265Z,0.07
2018-12-21T07:18:51.595Z,0.19
2018-12-21T07:21:22.842Z,-0.21
2018-12-21T07:23:53.883Z,0.15
2018-12-21T07:26:26.562Z,-0.01
2018-12-21T07:28:58.170Z,-0.29
2018-12-21T07:31:31.739Z,-0.83
2018-12-21T07:34:05.066Z,-0.13
2018-12-21T07:36:36.814Z,0.03
2018-12-21T07:39:13.177Z,0.39
2018-12-21T07:41:44.576Z,0.27
2018-12-21T07:44:18.218Z,0.05
2018-12-21T07:46:50.599Z,0.35
2018-12-21T07:49:26.270Z,0.54
2018-12-21T07:52:07.553Z,0.07
2018-12-21T07:54:40.762Z,0.32
2018-12-21T07:57:12.974Z,0.64
2018-12-21T07:59:45.672Z,0.44
2018-12-21T08:02:19.279Z,0.60
2018-12-21T08:04:49.806Z,0.76
2018-12-21T08:07:20.473Z,0.71
2018-12-21T08:09:51.118Z,1.10
2018-12-21T08:12:22.004Z,0.93
2018-12-21T08:14:52.613Z,0.68
2018-12-21T08:17:24.600Z,1.05
2018-12-21T08:19:56.985Z,0.27
2018-12-21T08:22:29.900Z,0.31
2018-12-21T08:25:01.147Z,0.46
2018-12-21T08:27:32.855Z,0.25
2018-12-21T08:30:10.730Z,0.66
2018-12-21T08:32:42.256Z,0.67
2018-12-21T08:35:12.776Z,0.71
2018-12-21T08:37:43.740Z,0.72
2018-12-21T08:40:15.228Z,0.69
2018-12-21T08:42:46.387Z,0.56
2018-12-21T08:45:19.635Z,0.74
2018-12-21T08:47:53.409Z,0.68
2018-12-21T08:50:24.245Z,0.93
2018-12-21T08:52:57.070Z,0.99
2018-12-21T08:55:27.964Z,1.11
2018-12-21T08:58:04.770Z,1.22
2018-12-21T09:00:38.022Z,0.63
2018-12-21T09:03:09.657Z,0.91
2018-12-21T09:05:51.050Z,0.79
2018-12-21T09:08:22.217Z,0.57
2018-12-21T09:10:58.914Z,0.53
2018-12-21T09:13:33.882Z,1.03
2018-12-21T09:16:07.257Z,1.51
2018-12-21T09:18:39.427Z,1.94
2018-12-21T09:21:14.290Z,2.11
2018-12-21T09:23:46.805Z,1.96
2018-12-21T09:26:20.079Z,1.93
2018-12-21T09:28:51.645Z,2.12
2018-12-21T09:31:24.358Z,2.36
2018-12-21T09:33:57.473Z,2.79
2018-12-21T09:36:30.325Z,2.38
2018-12-21T09:39:00.941Z,1.86
2018-12-21T09:41:37.280Z,1.52
2018-12-21T09:44:08.330Z,1.51
2018-12-21T09:46:42.324Z,1.89
2018-12-21T09:49:16.450Z,1.44
2018-12-21T09:51:52.225Z,1.30
2018-12-21T09:54:23.491Z,1.53
2018-12-21T09:56:55.069Z,1.56
2018-12-21T09:59:28.114Z,1.36
2018-12-21T10:02:07.250Z,1.70
2018-12-21T10:04:37.951Z,1.97
2018-12-21T10:07:08.858Z,1.71
2018-12-21T10:09:45.341Z,1.54
2018-12-21T10:12:18.574Z,1.47
2018-12-21T10:14:52.333Z,1.48
2018-12-21T10:17:25.524Z,1.38
2018-12-21T10:19:56.113Z,1.37
2018-12-21T10:22:26.925Z,1.11
2018-12-21T10:24:57.612Z,1.20
2018-12-21T10:27:37.260Z,0.11
2018-12-21T10:30:13.590Z,1.11
2018-12-21T10:32:44.325Z,1.56
2018-12-21T10:35:15.290Z,1.42
2018-12-21T10:37:46.014Z,1.23
2018-12-21T10:40:19.410Z,1.03
2018-12-21T10:42:52.478Z,1.09
2018-12-21T10:45:23.866Z,1.19
2018-12-21T10:47:56.886Z,0.96
2018-12-21T10:50:28.138Z,1.10
2018-12-21T10:53:01.839Z,1.15
2018-12-21T10:55:35.355Z,1.06
2018-12-21T10:58:05.899Z,0.82
2018-12-21T11:00:36.840Z,0.92
2018-12-21T11:03:07.361Z,1.13
2018-12-21T11:05:38.122Z,0.95
2018-12-21T11:08:08.941Z,1.43
2018-12-21T11:10:42.663Z,1.23
2018-12-21T11:13:16.656Z,1.00
2018-12-21T11:15:48.855Z,0.98
2018-12-21T11:18:19.492Z,1.06
2018-12-21T11:20:52.814Z,1.28
2018-12-21T11:23:24.987Z,1.58
2018-12-21T11:25:57.463Z,1.04
2018-12-21T11:28:28.166Z,1.34
2018-12-21T11:31:08.428Z,1.19
2018-12-21T11:33:40.821Z,1.16
2018-12-21T11:36:12.450Z,1.28
2018-12-21T11:38:44.757Z,1.19
2018-12-21T11:41:15.835Z,1.13
2018-12-21T11:43:46.469Z,1.32
2018-12-21T11:46:17.081Z,1.48
2018-12-21T11:48:48.181Z,1.55
2018-12-21T11:51:21.105Z,1.77
2018-12-21T11:53:53.842Z,1.86
2018-12-21T11:56:30.657Z,1.63
2018-12-21T11:59:01.298Z,1.75
2018-12-21T12:01:35.730Z,1.77
2018-12-21T12:04:06.988Z,1.81
2018-12-21T12:06:37.814Z,1.92
2018-12-21T12:09:08.812Z,2.00
2018-12-21T12:11:39.831Z,1.64
2018-12-21T12:14:13.963Z,1.77
2018-12-21T12:16:48.322Z,1.71
2018-12-21T12:19:20.020Z,1.91
2018-12-21T12:21:51.788Z,1.98
2018-12-21T12:24:27.412Z,2.53
2018-12-21T12:26:58.371Z,2.35
2018-12-21T12:29:29.462Z,2.18
2018-12-21T12:32:01.024Z,2.17
2018-12-21T12:34:32.342Z,2.33
2018-12-21T12:37:04.270Z,2.37
2018-12-21T12:39:37.173Z,2.17
2018-12-21T12:42:11.623Z,2.20
2018-12-21T12:44:44.127Z,2.24
2018-12-21T12:47:17.256Z,2.29
2018-12-21T12:49:48.774Z,2.41
2018-12-21T12:52:19.446Z,2.14
2018-12-21T12:54:50.290Z,1.70
2018-12-21T12:57:22.949Z,1.62
2018-12-21T12:59:55.349Z,1.65
2018-12-21T13:02:28.168Z,1.76
2018-12-21T13:05:01.444Z,1.99
2018-12-21T13:07:33.385Z,1.99
2018-12-21T13:10:11.566Z,2.41
2018-12-21T13:12:43.202Z,2.37
2018-12-21T13:15:16.191Z,1.97
2018-12-21T13:17:47.482Z,2.08
2018-12-21T13:20:19.775Z,2.06
2018-12-21T13:22:58.410Z,1.87
2018-12-21T13:25:29.136Z,2.01
2018-12-21T13:27:59.914Z,2.25
2018-12-21T13:30:30.474Z,2.40
2018-12-21T13:33:01.270Z,2.09
2018-12-21T13:35:35.112Z,2.15
2018-12-21T13:38:09.454Z,1.88
2018-12-21T13:40:42.347Z,2.14
2018-12-21T13:43:16.141Z,2.43
2018-12-21T13:45:48.271Z,2.58
2018-12-21T13:48:19.221Z,2.57
2018-12-21T13:50:49.750Z,2.66
2018-12-21T13:53:20.282Z,2.99
2018-12-21T13:55:51.102Z,3.18
2018-12-21T13:58:21.718Z,3.20
2018-12-21T14:00:52.260Z,3.18
2018-12-21T14:03:23.290Z,3.17
2018-12-21T14:05:53.822Z,2.95
2018-12-21T14:08:25.308Z,2.91
2018-12-21T14:10:58.377Z,2.98
2018-12-21T14:13:32.310Z,3.08
2018-12-21T14:16:05.106Z,3.03
2018-12-21T14:18:37.841Z,3.46
2018-12-21T14:21:10.443Z,3.57
2018-12-21T14:23:42.655Z,3.74
2018-12-21T14:26:13.740Z,3.57
2018-12-21T14:28:45.295Z,2.80
2018-12-21T14:31:16.330Z,2.86
2018-12-21T14:33:47.796Z,3.13
2018-12-21T14:36:21.563Z,3.40
2018-12-21T14:38:56.607Z,3.18
2018-12-21T14:41:28.329Z,3.02
2018-12-21T14:44:01.622Z,3.35
2018-12-21T14:46:34.912Z,3.79
2018-12-21T14:49:05.629Z,3.42
2018-12-21T14:51:37.640Z,3.92
2018-12-21T14:54:10.450Z,3.60
2018-12-21T14:56:43.794Z,3.18
2018-12-21T14:59:16.746Z,3.98
2018-12-21T15:01:49.074Z,3.66
2018-12-21T15:04:24.247Z,4.28
2018-12-21T15:06:54.762Z,4.67
2018-12-21T15:09:26.253Z,4.42
2018-12-21T15:11:59.815Z,4.20
2018-12-21T15:14:31.014Z,3.91
2018-12-21T15:17:02.125Z,4.35
2018-12-21T15:19:34.964Z,3.57
2018-12-21T15:22:07.798Z,2.73
2018-12-21T15:24:40.502Z,2.95
2018-12-21T15:27:13.945Z,2.36
2018-12-21T15:29:44.761Z,2.62
2018-12-21T15:32:17.574Z,3.36
2018-12-21T15:34:48.407Z,3.90
2018-12-21T15:37:18.939Z,4.03
2018-12-21T15:39:52.476Z,4.19
2018-12-21T15:42:26.764Z,3.76
2018-12-21T15:45:00.169Z,3.56
2018-12-21T15:47:40.135Z,4.20
2018-12-21T15:50:16.932Z,3.83
2018-12-21T15:52:50.115Z,3.74
2018-12-21T15:55:28.224Z,3.46
2018-12-21T15:58:00.314Z,3.46
2018-12-21T16:00:33.981Z,3.49
2018-12-21T16:03:06.053Z,4.09
2018-12-21T16:05:38.225Z,4.68
2018-12-21T16:08:11.386Z,3.94
2018-12-21T16:10:42.517Z,3.55
2018-12-21T16:13:15.767Z,4.40
2018-12-21T16:15:50.010Z,4.13
2018-12-21T16:18:23.012Z,4.21
2018-12-21T16:20:54.083Z,4.76
2018-12-21T16:23:24.903Z,3.84
2018-12-21T16:26:03.530Z,4.20
2018-12-21T16:28:32.222Z,4.42
2018-12-21T16:31:05.757Z,4.48
2018-12-21T16:33:38.967Z,4.87
2018-12-21T16:36:09.933Z,4.01
2018-12-21T16:38:42.326Z,3.39
2018-12-21T16:41:16.146Z,3.80
2018-12-21T16:43:50.748Z,3.87
2018-12-21T16:46:22.639Z,4.43
2018-12-21T16:48:53.341Z,4.64
2018-12-21T16:51:23.974Z,3.60
2018-12-21T16:53:54.758Z,3.24
2018-12-21T16:56:25.268Z,4.14
2018-12-21T16:58:55.926Z,3.59
2018-12-21T17:01:26.510Z,3.78
2018-12-21T17:03:57.271Z,3.75
2018-12-21T17:06:30.441Z,3.51
2018-12-21T17:09:01.197Z,2.39
2018-12-21T17:11:34.254Z,2.29
2018-12-21T17:14:07.060Z,2.42
2018-12-21T17:16:43.336Z,3.37
2018-12-21T17:19:18.575Z,3.40
2018-12-21T17:21:53.220Z,3.74
2018-12-21T17:24:26.550Z,4.50
2018-12-21T17:27:00.188Z,4.83
2018-12-21T17:29:32.346Z,4.15
2018-12-21T17:32:03.590Z,4.23
2018-12-21T17:34:34.528Z,3.68
2018-12-21T17:37:05.102Z,3.45
2018-12-21T17:39:35.700Z,3.48
2018-12-21T17:42:06.435Z,3.84
2018-12-21T17:44:36.955Z,3.46
2018-12-21T17:47:07.644Z,3.44
2018-12-21T17:49:38.808Z,3.59
2018-12-21T17:52:09.776Z,4.34
2018-12-21T17:54:40.725Z,4.47
2018-12-21T17:57:13.946Z,4.76
2018-12-21T17:59:50.555Z,4.56
2018-12-21T18:02:23.890Z,3.53
2018-12-21T18:05:00.527Z,3.69
2018-12-21T18:07:31.224Z,3.39
2018-12-21T18:10:02.126Z,3.93
2018-12-21T18:12:42.417Z,4.07
2018-12-21T18:15:14.030Z,3.63
2018-12-21T18:17:45.223Z,3.86
2018-12-21T18:20:15.529Z,3.55
2018-12-21T18:22:46.367Z,3.25
2018-12-21T18:25:20.870Z,3.00
2018-12-21T18:27:55.006Z,2.94
2018-12-21T18:30:37.260Z,3.69
2018-12-21T18:33:11.700Z,4.09
2018-12-21T18:35:43.472Z,4.26
2018-12-21T18:38:18.253Z,3.24
2018-12-21T18:40:50.533Z,3.69
2018-12-21T18:43:21.884Z,3.53
2018-12-21T18:45:52.711Z,3.16
2018-12-21T18:48:23.489Z,3.65
2018-12-21T18:50:54.046Z,3.10
2018-12-21T18:53:24.859Z,3.52
2018-12-21T18:55:58.217Z,3.27
2018-12-21T18:58:31.615Z,3.49
2018-12-21T19:01:02.135Z,3.03
2018-12-21T19:03:36.747Z,3.20
2018-12-21T19:06:08.329Z,3.32
2018-12-21T19:08:41.646Z,3.43
2018-12-21T19:11:14.531Z,3.34
2018-12-21T19:13:45.281Z,3.20
2018-12-21T19:16:16.518Z,3.20
2018-12-21T19:18:51.066Z,3.68
2018-12-21T19:21:24.940Z,4.37
2018-12-21T19:23:57.020Z,3.98
2018-12-21T19:26:28.199Z,3.83
2018-12-21T19:29:04.268Z,3.83
2018-12-21T19:31:35.050Z,4.07
2018-12-21T19:34:05.582Z,3.81
2018-12-21T19:36:38.630Z,3.63
2018-12-21T19:39:11.806Z,3.96
2018-12-21T19:41:43.918Z,4.15
2018-12-21T19:44:17.063Z,4.12
2018-12-21T19:46:50.835Z,4.06
2018-12-21T19:49:21.984Z,3.92
2018-12-21T19:51:54.825Z,3.64
2018-12-21T19:54:25.710Z,3.36
2018-12-21T19:57:14.044Z,3.39
2018-12-21T19:59:46.925Z,3.47
2018-12-21T20:02:20.136Z,3.48
2018-12-21T20:04:54.634Z,3.21
2018-12-21T20:07:26.881Z,2.78
2018-12-21T20:09:57.979Z,2.72
2018-12-21T20:12:28.978Z,2.48
2018-12-21T20:15:02.880Z,3.41
2018-12-21T20:17:39.887Z,3.52
2018-12-21T20:20:16.833Z,3.40
2018-12-21T20:22:49.807Z,3.57
2018-12-21T20:25:23.312Z,3.43
2018-12-21T20:27:56.204Z,3.81
2018-12-21T20:30:26.987Z,3.54
2018-12-21T20:32:58.554Z,3.47
2018-12-21T20:35:31.977Z,3.47
2018-12-21T20:38:05.532Z,3.58
2018-12-21T20:40:37.854Z,3.30
2018-12-21T20:43:11.874Z,3.46
2018-12-21T20:45:44.298Z,3.25
2018-12-21T20:48:17.287Z,3.10
2018-12-21T20:50:50.337Z,2.74
2018-12-21T20:53:20.947Z,3.00
2018-12-21T20:55:52.254Z,3.42
2018-12-21T20:58:34.095Z,3.53
2018-12-21T21:01:05.602Z,3.89
2018-12-21T21:03:39.514Z,4.14
2018-12-21T21:06:11.572Z,4.05
2018-12-21T21:08:43.367Z,3.77
2018-12-21T21:11:14.421Z,4.44
2018-12-21T21:13:46.502Z,4.27
2018-12-21T21:16:19.675Z,3.87
2018-12-21T21:18:52.380Z,3.42
2018-12-21T21:21:23.201Z,3.25
2018-12-21T21:23:54.742Z,3.03
2018-12-21T21:26:27.510Z,2.77
2018-12-21T21:28:58.187Z,2.36
2018-12-21T21:31:31.055Z,2.30
2018-12-21T21:34:01.973Z,2.26
2018-12-21T21:36:35.531Z,2.51
2018-12-21T21:39:08.311Z,2.99
2018-12-21T21:41:39.997Z,2.84
2018-12-21T21:44:11.348Z,2.74
2018-12-21T21:46:44.436Z,3.29
2018-12-21T21:49:16.030Z,3.13
2018-12-21T21:51:55.799Z,3.19
2018-12-21T21:54:29.442Z,3.41
2018-12-21T21:57:02.485Z,3.53
2018-12-21T21:59:35.353Z,4.01
2018-12-21T22:02:39.437Z,3.73
2018-12-21T22:05:11.502Z,3.35
2018-12-21T22:07:46.007Z,3.51
2018-12-21T22:10:17.462Z,3.37
2018-12-21T22:12:48.663Z,3.80
2018-12-21T22:15:19.600Z,3.38
2018-12-21T22:17:51.008Z,2.94
2018-12-21T22:20:25.093Z,3.19
2018-12-21T22:23:00.208Z,3.05
2018-12-21T22:25:31.538Z,2.73
2018-12-21T22:28:02.057Z,2.23
2018-12-21T22:30:35.535Z,2.12
2018-12-21T22:33:08.887Z,2.42
2018-12-21T22:35:39.765Z,2.48
2018-12-21T22:38:11.343Z,2.34
2018-12-21T22:40:43.417Z,2.37
2018-12-21T22:43:14.446Z,2.18
2018-12-21T22:45:47.453Z,2.27
2018-12-21T22:48:18.730Z,2.31
2018-12-21T22:50:51.025Z,2.48
2018-12-21T22:53:22.469Z,2.95
2018-12-21T22:55:53.556Z,3.31
2018-12-21T22:58:24.726Z,3.63
2018-12-21T23:00:57.758Z,3.51
2018-12-21T23:03:31.767Z,3.63
2018-12-21T23:06:02.384Z,3.83
2018-12-21T23:08:33.435Z,3.69
2018-12-21T23:11:04.298Z,2.92
2018-12-21T23:13:36.908Z,3.27
2018-12-21T23:16:08.755Z,2.89
2018-12-21T23:18:41.530Z,2.90
2018-12-21T23:21:13.242Z,2.97
2018-12-21T23:23:46.627Z,3.21
2018-12-21T23:26:17.757Z,3.85
2018-12-21T23:28:48.728Z,3.69
2018-12-21T23:31:21.919Z,3.99
2018-12-21T23:33:52.772Z,3.81
2018-12-21T23:36:26.054Z,3.47
2018-12-21T23:38:56.618Z,3.88
2018-12-21T23:41:29.417Z,3.33
2018-12-21T23:44:00.822Z,3.33
2018-12-21T23:46:35.198Z,3.49
2018-12-21T23:49:08.036Z,3.72
2018-12-21T23:51:39.279Z,3.49
2018-12-21T23:54:13.702Z,3.02
2018-12-21T23:56:44.278Z,2.64
2018-12-21T23:59:20.145Z,2.69
